FNLU/LAD METAR and TAF weather

Enter ICAO airport designator
Station Type Date Time Source
FNLU METAR 2021/09/23 16:00 UTC NOAA

FNLU 231600Z 24009KT 9999 FEW020 24/20 Q1010


Station Type Date Time Source
FNLU Decoded METAR 2021/09/23 16:00 UTC NOAA

Luanda, Angola (FNLU) 08-51S 013-14E 70M
Sep 23, 2021 - 12:00 PM EDT / 2021.09.23 1600 UTC
Wind: from the WSW (240 degrees) at 10 MPH (9 KT):0
Visibility: greater than 7 mile(s):0
Sky conditions: mostly clear
Temperature: 75 F (24 C)
Dew Point: 68 F (20 C)
Relative Humidity: 78%
Pressure (altimeter): 29.83 in. Hg (1010 hPa)
ob: FNLU 231600Z 24009KT 9999 FEW020 24/20 Q1010
cycle: 16

Station Type Date Time Source
FNLU TAF 2021/09/23 18:26 UTC NOAA

TAF FNLU 231700Z 2318/2412 26012KT 9999 FEW018
TEMPO 2319/2423 20006KT 9000 SCT015 BKN040
BECMG 2403/2407 18007KT 8000 BKN025
TEMPO 2409/2413 27008KT 9999 FEW020

Example: see airport list